Terminal Aerodrome Forecast
Issued by NWS

Home | Current Version | Previous Version | Text Only | Print | Product List | Glossary Off
Versions: 1 2 3 4 5 6 7 8 9 10 11 12 13 14 15 16 17 18 19 20 21

000
FTUS43 KGRB 181700
TAFCWA
TAF
KCWA 181720Z 1818/1918 09012G18KT P6SM SCT200
     FM190100 10008KT P6SM BKN150
     FM190700 11008KT P6SM BKN060 OVC150 WS015/14040KT
     FM191300 12012G17KT P6SM BKN060 OVC100
      TEMPO 1913/1917 -SHRA OVC060=

USA.gov is the U.S. government's official web portal to all federal, state and local government web resources and services.